Latest Coastal Weather Observations for Bougainville Reef

IDQ60701

Issued at 10:02 am EST Monday 20 May 2024 (issued every 10 minutes, with the page automatically refreshed every 10 minutes)

About coastal observations | Map of coastal stations | Coastal observations for QLD | Marine services | Other Formats
Station Details ID: 200840 Name: BOUGAINVILLE REEF Lat: -15.49 Lon: 147.12 Height: 0.0 m
Data from the previous 72 hours. | See also: Recent months for locations in Queensland
Date/Time
EST
Wind Sea
Height
m
Swell Vis
km
Cloud Weather Temp
°C
Press
MSL
hPa
Rain since
9am
mm
Dir  Spd
kts
Gust
kts
Height
m
Period
s
Dir
20/10:00am SE 21 25 - - - - - - - 25.1 1014.8 -
20/09:30am SE 21 25 - - - - - - - 24.9 1014.9 -
20/09:00am SE 21 24 - - - - - - - 24.8 1014.8 -
20/08:30am SE 19 22 - - - - - - - 24.9 1014.7 -
20/08:00am SE 21 25 - - - - - - - 24.7 1013.9 -
20/07:30am SE 21 24 - - - - - - - 24.7 1014.1 -
20/07:00am SE 22 25 - - - - - - - 24.5 1013.7 -
20/06:30am SE 21 25 - - - - - - - 24.5 1013.8 -
20/06:00am SE 22 25 - - - - - - - 24.5 1013.4 -
20/05:30am SE 23 26 - - - - - - - 24.3 1013.0 -
20/05:00am SE 23 28 - - - - - - - 24.1 1012.8 -
20/04:30am SSE 23 27 - - - - - - - 24.2 1012.9 -
20/04:00am SE 24 29 - - - - - - - 24.3 1013.0 -
20/03:30am SE 23 26 - - - - - - - 24.4 1013.0 -
20/03:00am SE 23 26 - - - - - - - 24.4 1013.2 -
20/02:30am SE 23 28 - - - - - - - 24.2 1013.4 -
20/02:00am SSE 22 26 - - - - - - - 24.2 1013.3 -
20/01:30am SE 24 28 - - - - - - - 24.4 1013.5 -
20/01:00am SE 23 27 - - - - - - - 24.6 1013.8 -
20/12:30am SE 22 26 - - - - - - - 24.6 1014.0 -
20/12:00am SE 22 25 - - - - - - - 24.9 1014.1 -
 
Date/Time
EST
Wind Sea
Height
m
Swell Vis
km
Cloud Weather Temp
°C
Press
MSL
hPa
Rain since
9am
mm
Dir  Spd
kts
Gust
kts
Height
m
Period
s
Dir
19/11:30pm SE 21 24 - - - - - - - 24.7 1014.4 -
19/11:00pm SE 21 25 - - - - - - - 24.8 1014.3 -
19/10:30pm SE 22 25 - - - - - - - 24.8 1014.3 -
19/10:00pm SE 21 25 - - - - - - - 24.7 1014.3 -
19/09:30pm SE 21 25 - - - - - - - 24.9 1014.5 -
19/09:00pm SE 22 25 - - - - - - - 25.1 1014.2 -
19/08:30pm SE 20 23 - - - - - - - 25.1 1014.1 -
19/08:00pm SE 22 25 - - - - - - - 25.3 1013.7 -
19/07:30pm SE 21 25 - - - - - - - 25.4 1013.3 -
19/07:00pm SE 23 26 - - - - - - - 25.3 1012.4 -
19/06:30pm SE 21 25 - - - - - - - 25.7 1012.3 -
19/06:00pm SE 22 25 - - - - - - - 25.6 1011.9 -
19/05:30pm SE 21 25 - - - - - - - 25.8 1011.7 -
19/05:00pm SE 20 24 - - - - - - - 25.5 1011.4 -
19/04:30pm SE 21 24 - - - - - - - 25.8 1011.2 -
19/04:00pm SE 19 22 - - - - - - - 25.9 1010.9 -
19/03:30pm SE 19 23 - - - - - - - 25.8 1010.7 -
19/03:00pm SE 19 22 - - - - - - - 25.6 1010.7 -
19/02:30pm SE 20 23 - - - - - - - 25.8 1010.9 -
19/02:00pm SE 19 23 - - - - - - - 25.7 1011.3 -
19/01:30pm SE 19 22 - - - - - - - 25.7 1011.6 -
19/01:00pm SE 21 25 - - - - - - - 25.7 1011.8 -
19/12:30pm SE 21 25 - - - - - - - 25.7 1012.0 -
19/12:00pm SE 21 25 - - - - - - - 25.6 1012.3 -
19/11:30am SE 23 26 - - - - - - - 25.9 1012.4 -
19/11:00am SE 22 25 - - - - - - - 25.6 1012.9 -
19/10:30am SE 22 25 - - - - - - - 25.7 1013.1 -
19/10:00am SE 23 27 - - - - - - - 25.6 1013.1 -
19/09:30am SE 22 27 - - - - - - - 25.6 1013.1 -
19/09:00am SE 23 27 - - - - - - - 25.6 1013.0 -
19/08:30am SE 23 26 - - - - - - - 25.8 1012.7 -
19/08:00am SE 23 28 - - - - - - - 25.5 1012.7 -
19/07:30am SE 23 27 - - - - - - - 25.7 1012.3 -
19/07:00am SE 23 28 - - - - - - - 25.7 1012.1 -
19/06:30am SE 23 26 - - - - - - - 25.7 1011.6 -
19/06:00am SE 21 25 - - - - - - - 25.9 1011.2 -
19/05:30am SE 22 25 - - - - - - - 25.7 1011.0 -
19/05:00am SE 20 23 - - - - - - - 25.7 1011.0 -
19/04:30am SE 20 23 - - - - - - - 25.4 1010.7 -
19/04:00am SE 21 23 - - - - - - - 25.5 1010.5 -
19/03:30am SE 18 22 - - - - - - - 25.7 1011.2 -
19/03:00am SE 19 22 - - - - - - - 25.3 1011.2 -
19/02:30am SE 21 24 - - - - - - - 25.8 1011.1 -
19/02:00am SE 19 22 - - - - - - - 25.8 1011.3 -
19/01:30am SE 21 24 - - - - - - - 25.7 1011.4 -
19/01:00am SE 22 25 - - - - - - - 25.7 1011.7 -
19/12:30am SE 21 24 - - - - - - - 25.8 1012.1 -
19/12:00am SE 21 24 - - - - - - - 25.8 1012.1 -
 
Date/Time
EST
Wind Sea
Height
m
Swell Vis
km
Cloud Weather Temp
°C
Press
MSL
hPa
Rain since
9am
mm
Dir  Spd
kts
Gust
kts
Height
m
Period
s
Dir
18/11:30pm SE 22 25 - - - - - - - 25.7 1012.1 -
18/11:00pm SE 21 25 - - - - - - - 25.8 1012.5 -
18/10:30pm SE 21 24 - - - - - - - 25.8 1012.9 -
18/10:00pm SE 20 23 - - - - - - - 26.1 1012.9 -
18/09:30pm SE 22 25 - - - - - - - 25.9 1013.1 -
18/09:00pm SE 21 25 - - - - - - - 25.7 1013.0 -
18/08:30pm SSE 23 27 - - - - - - - 25.8 1012.7 -
18/08:00pm SE 22 26 - - - - - - - 25.8 1012.5 -
18/07:30pm SE 21 25 - - - - - - - 25.8 1012.5 -
18/07:00pm SSE 22 26 - - - - - - - 25.8 1012.3 -
18/06:30pm SE 21 25 - - - - - - - 25.9 1012.2 -
18/06:00pm SE 20 24 - - - - - - - 25.9 1011.8 -
18/05:30pm SE 21 25 - - - - - - - 25.9 1011.4 -
18/05:00pm SE 22 25 - - - - - - - 26.1 1011.2 -
18/04:30pm SSE 23 25 - - - - - - - 26.2 1010.8 -
18/04:00pm SE 22 25 - - - - - - - 26.4 1010.7 -
18/03:30pm SE 21 25 - - - - - - - 26.0 1010.8 -
18/03:00pm SE 21 24 - - - - - - - 26.1 1011.0 -
18/02:30pm SE 21 24 - - - - - - - 25.8 1011.1 -
18/02:00pm SE 21 24 - - - - - - - 26.0 1011.4 -
18/01:30pm SE 22 25 - - - - - - - 26.1 1011.7 -
18/01:00pm SE 21 24 - - - - - - - 26.5 1012.0 -
18/12:30pm SE 21 25 - - - - - - - 26.1 1012.5 -
18/12:00pm SE 20 24 - - - - - - - 26.2 1012.8 -
18/11:30am SE 22 25 - - - - - - - 26.0 1013.0 -
18/11:00am SE 22 25 - - - - - - - 26.1 1013.2 -
18/10:30am SE 22 25 - - - - - - - 26.2 1013.5 -
18/10:00am SE 22 26 - - - - - - - 26.2 1013.7 -
18/09:30am SE 21 25 - - - - - - - 26.1 1013.8 -
18/09:00am SE 22 26 - - - - - - - 26.3 1013.6 -
18/08:30am SE 23 27 - - - - - - - 26.1 1013.4 -
18/08:00am SE 23 26 - - - - - - - 26.2 1013.2 -
18/07:30am SE 27 31 - - - - - - - 24.9 1013.3 -
18/07:00am SE 21 25 - - - - - - - 25.7 1012.9 -
18/06:30am SE 22 26 - - - - - - - 25.5 1012.6 -
18/06:00am SE 21 25 - - - - - - - 26.2 1012.0 -
18/05:30am SE 22 25 - - - - - - - 25.9 1011.7 -
18/05:00am SE 23 26 - - - - - - - 25.9 1011.5 -
18/04:30am SE 21 25 - - - - - - - 26.1 1011.5 -
18/04:00am SE 22 27 - - - - - - - 25.9 1011.4 -
18/03:30am SE 22 25 - - - - - - - 25.7 1011.6 -
18/03:00am SE 22 25 - - - - - - - 26.1 1011.7 -
18/02:30am SE 22 26 - - - - - - - 26.3 1011.7 -
18/02:00am SE 21 25 - - - - - - - 26.2 1011.9 -
18/01:30am SE 22 25 - - - - - - - 26.1 1012.3 -
18/01:00am SE 22 26 - - - - - - - 26.4 1012.6 -
18/12:30am SE 22 25 - - - - - - - 26.1 1012.9 -
18/12:00am SE 20 24 - - - - - - - 26.2 1013.2 -
 
Date/Time
EST
Wind Sea
Height
m
Swell Vis
km
Cloud Weather Temp
°C
Press
MSL
hPa
Rain since
9am
mm
Dir  Spd
kts
Gust
kts
Height
m
Period
s
Dir
17/11:30pm SE 21 24 - - - - - - - 26.2 1013.4 -
17/11:00pm SE 22 25 - - - - - - - 26.2 1013.6 -
17/10:30pm SE 21 25 - - - - - - - 26.3 1013.6 -
17/10:00pm SE 20 23 - - - - - - - 26.3 1013.8 -
17/09:30pm SE 21 24 - - - - - - - 26.5 1013.8 -
17/09:00pm SE 21 24 - - - - - - - 26.2 1013.9 -
17/08:30pm SE 21 24 - - - - - - - 26.4 1013.8 -
17/08:00pm SE 20 24 - - - - - - - 26.3 1013.6 -
17/07:30pm SE 21 24 - - - - - - - 26.4 1013.4 -
17/07:00pm SE 21 24 - - - - - - - 26.5 1013.2 -
17/06:30pm SE 22 27 - - - - - - - 26.4 1012.7 -
17/06:00pm SE 24 28 - - - - - - - 26.5 1012.6 -
17/05:30pm SE 21 25 - - - - - - - 26.3 1012.3 -
17/05:00pm SE 22 25 - - - - - - - 26.5 1012.2 -
17/04:30pm SE 22 27 - - - - - - - 26.4 1011.9 -
17/04:00pm SE 23 25 - - - - - - - 26.4 1011.9 -
17/03:30pm SE 23 26 - - - - - - - 26.4 1011.7 -
17/03:00pm SE 22 25 - - - - - - - 26.3 1011.8 -
17/02:30pm SE 22 28 - - - - - - - 26.4 1012.0 -
17/02:00pm SE 23 26 - - - - - - - 26.6 1012.2 -
17/01:30pm SE 24 27 - - - - - - - 26.4 1012.5 -
17/01:00pm SE 24 27 - - - - - - - 26.6 1012.8 -
17/12:30pm SE 23 28 - - - - - - - 26.6 1013.2 -
17/12:00pm SE 23 28 - - - - - - - 26.3 1013.5 -
17/11:30am SE 23 28 - - - - - - - 26.4 1013.8 -
17/11:00am SE 23 27 - - - - - - - 26.6 1014.2 -
17/10:30am SE 25 28 - - - - - - - 26.7 1014.7 -

Other formats

Comma delimited format used in spreadsheet applications
http://www.bom.gov.au/fwo/IDQ60701/IDQ60701.95288.axf

JavaScript Object Notation format (JSON) in row-major order
http://www.bom.gov.au/fwo/IDQ60701/IDQ60701.95288.json

Data quality

Most of these data are generated automatically and are frequently updated. Quality checks on data are not normally performed. It is possible for incorrect values to appear. Refer to information at About Latest Weather Observations and please check the disclaimer before using these data.